Accueil
METAR-TAF:

METAR-TAF

Aéroports :

Aéroport international de Bahreïn

Bahreïn, Bahreïn

latitude: 26-16N, longitude: 050-39E, altitude: 2 m

Observation

Le bulletin a été fait il y a 24 minutes, à 18:00 UTC
Vent 7 kt de est/sud-est
Température 34°C
Humidité 71%
Pression 996 hPa
Visibilité 10 km ou plus
pas de nuages en-dessous de 1500 mètres et pas de cumulonimbus.

METAR: OBBI 201800Z 11007KT CAVOK 34/28 Q0996 NOSIG

Heure: 21:24 (18:24 UTC)

Prévision

Le bulletin a été fait il y a 1 heure et 24 minutes, à 17:00 UTC
Prévision valable du 20 à 18 UTC au 22 à 00 UTC
Vent 10 kt de est
Visibilité 10 km ou plus
pas de nuages en-dessous de 1500 mètres et pas de cumulonimbus.
Evoluant progressivement
du 20 à 20 UTC au 20 à 22 UTC
Vent 3 kt de direction variable
Evoluant progressivement
du 21 à 09 UTC au 21 à 11 UTC
Vent 10 kt de nord-est

TAF: OBBI 201700Z 2018/2200 09010KT CAVOK BECMG 2020/2022 VRB03KT BECMG 2109/2111 05010KT

Observations et prévisions météorologiques de plus de 4000 aéroports (messages METAR et TAF).

Les stations disponibles sont représentées par des disques jaunes et rouges sur la carte.

Passer la souris dessus pour voir le nom de la station.

Cliquer dessus pour voir les observations et prévisions météorologiques.

Pour changer de carte: cliquez sur les boutons verts avec une croix noire pour zoomer, sur le bouton vert avec un tiret pour effectuer un zoom arrière, ou sur les flèches vertes pour les cartes adjacentes.


METAR-TAF: